createdAt,value
2023-02-07T00:05:20.076Z,-5.39
2023-02-07T00:10:42.458Z,-5.37
2023-02-07T00:16:04.715Z,-5.31
2023-02-07T00:21:30.913Z,-5.21
2023-02-07T00:26:53.971Z,-4.98
2023-02-07T00:32:16.284Z,-4.85
2023-02-07T00:37:38.665Z,-4.85
2023-02-07T00:43:00.854Z,-4.71
2023-02-07T00:48:23.695Z,-4.63
2023-02-07T00:53:48.499Z,-4.26
2023-02-07T00:59:11.117Z,-4.02
2023-02-07T01:04:33.432Z,-3.81
2023-02-07T01:09:56.213Z,-3.60
2023-02-07T01:15:19.440Z,-3.50
2023-02-07T01:20:41.801Z,-3.36
2023-02-07T01:26:04.837Z,-3.28
2023-02-07T01:31:28.504Z,-3.22
2023-02-07T01:36:51.153Z,-3.18
2023-02-07T01:42:13.478Z,-3.12
2023-02-07T01:47:38.249Z,-3.09
2023-02-07T01:53:01.525Z,-3.07
2023-02-07T01:58:25.729Z,-3.05
2023-02-07T02:03:50.456Z,-2.97
2023-02-07T02:09:17.601Z,-2.97
2023-02-07T02:15:09.340Z,-2.90
2023-02-07T02:20:54.465Z,-2.79
2023-02-07T02:26:27.617Z,-2.79
2023-02-07T02:32:43.020Z,-2.85
2023-02-07T02:38:15.993Z,-2.97
2023-02-07T02:44:01.172Z,-3.04
2023-02-07T02:49:26.406Z,-3.04
2023-02-07T02:54:51.460Z,-2.98
2023-02-07T03:00:52.625Z,-2.93
2023-02-07T03:06:28.597Z,-3.13
2023-02-07T03:12:18.262Z,-3.03
2023-02-07T03:17:53.591Z,-3.14
2023-02-07T03:23:18.943Z,-3.14
2023-02-07T03:28:43.543Z,-3.13
2023-02-07T03:34:11.258Z,-3.15
2023-02-07T03:39:33.867Z,-3.15
2023-02-07T03:44:59.115Z,-3.14
2023-02-07T03:50:22.321Z,-3.11
2023-02-07T03:55:45.565Z,-3.14
2023-02-07T04:01:07.854Z,-3.13
2023-02-07T04:06:30.681Z,-2.96
2023-02-07T04:11:54.622Z,-2.97
2023-02-07T04:17:17.096Z,-2.94
2023-02-07T04:22:40.197Z,-2.95
2023-02-07T04:28:02.669Z,-2.93
2023-02-07T04:33:26.320Z,-2.91
2023-02-07T04:38:48.968Z,-2.89
2023-02-07T04:44:11.314Z,-2.88
2023-02-07T04:49:34.547Z,-2.70
2023-02-07T04:54:57.337Z,-2.64
2023-02-07T05:00:20.617Z,-2.60
2023-02-07T05:05:45.954Z,-2.56
2023-02-07T05:11:14.511Z,-2.51
2023-02-07T05:16:36.780Z,-2.45
2023-02-07T05:21:59.148Z,-2.44
2023-02-07T05:27:21.381Z,-2.46
2023-02-07T05:33:01.752Z,-2.53
2023-02-07T05:38:27.627Z,-2.54
2023-02-07T05:43:50.423Z,-2.51
2023-02-07T05:49:12.663Z,-2.50
2023-02-07T05:54:35.123Z,-2.52
2023-02-07T05:59:57.662Z,-2.52
2023-02-07T06:05:25.372Z,-2.52
2023-02-07T06:10:47.568Z,-2.52
2023-02-07T06:16:11.283Z,-2.52
2023-02-07T06:21:45.829Z,-2.55
2023-02-07T06:26:59.133Z,-2.57
2023-02-07T06:32:21.563Z,-2.54
2023-02-07T06:37:43.847Z,-2.49
2023-02-07T06:43:08.917Z,-2.49
2023-02-07T06:48:30.527Z,-2.51
2023-02-07T06:53:52.722Z,-2.52
2023-02-07T06:59:14.985Z,-2.50
2023-02-07T07:04:37.499Z,-2.47
2023-02-07T07:09:59.756Z,-2.46
2023-02-07T07:15:23.616Z,-2.42
2023-02-07T07:20:46.024Z,-2.34
2023-02-07T07:26:08.602Z,-2.31
2023-02-07T07:31:31.093Z,-2.18
2023-02-07T07:36:55.072Z,-2.06
2023-02-07T07:42:18.372Z,-1.96
2023-02-07T07:47:40.672Z,-1.87
2023-02-07T07:53:02.982Z,-1.74
2023-02-07T07:58:25.543Z,-1.62
2023-02-07T08:03:48.131Z,-1.53
2023-02-07T08:09:10.391Z,-1.35
2023-02-07T08:14:32.705Z,-1.17
2023-02-07T08:19:55.002Z,-1.08
2023-02-07T08:25:17.434Z,-1.08
2023-02-07T08:30:40.824Z,-1.07
2023-02-07T08:36:05.670Z,-0.96
2023-02-07T08:41:27.883Z,-0.92
2023-02-07T08:46:50.160Z,-0.85
2023-02-07T08:52:12.795Z,-0.75
2023-02-07T08:57:35.032Z,-0.75
2023-02-07T09:02:57.243Z,-0.70
2023-02-07T09:08:20.195Z,-0.76
2023-02-07T09:13:44.639Z,-0.70
2023-02-07T09:19:07.008Z,-0.59
2023-02-07T09:24:29.295Z,-0.48
2023-02-07T09:29:52.141Z,-0.40
2023-02-07T09:35:14.419Z,-0.33
2023-02-07T09:40:39.450Z,-0.12
2023-02-07T09:46:07.384Z,0.06
2023-02-07T09:51:32.545Z,0.17
2023-02-07T09:56:55.217Z,0.14
2023-02-07T10:02:23.499Z,0.37
2023-02-07T10:07:46.044Z,0.36
2023-02-07T10:13:35.550Z,0.29
2023-02-07T10:19:11.807Z,0.26
2023-02-07T10:24:50.883Z,0.60
2023-02-07T10:30:23.326Z,0.91
2023-02-07T10:35:50.817Z,1.04
2023-02-07T10:41:20.852Z,1.11
2023-02-07T10:46:44.373Z,1.30
2023-02-07T10:52:26.137Z,1.48
2023-02-07T10:57:54.264Z,1.47
2023-02-07T11:03:23.038Z,2.05
2023-02-07T11:08:50.131Z,1.47
2023-02-07T11:14:18.621Z,1.52
2023-02-07T11:19:43.475Z,2.13
2023-02-07T11:25:10.168Z,2.03
2023-02-07T11:30:40.202Z,1.78
2023-02-07T11:36:19.385Z,2.02
2023-02-07T11:41:46.534Z,1.37
2023-02-07T11:47:11.463Z,1.12
2023-02-07T11:52:35.354Z,1.43
2023-02-07T11:57:58.868Z,1.62
2023-02-07T12:03:34.677Z,1.87
2023-02-07T12:08:58.714Z,2.18
2023-02-07T12:14:38.232Z,1.78
2023-02-07T12:20:13.925Z,1.90
2023-02-07T12:25:44.036Z,1.03
2023-02-07T12:31:11.360Z,1.00
2023-02-07T12:36:46.763Z,1.09
2023-02-07T12:42:16.908Z,1.02
2023-02-07T12:47:50.044Z,1.03
2023-02-07T12:53:23.181Z,0.81
2023-02-07T12:59:07.093Z,0.79
2023-02-07T13:05:05.789Z,0.77
2023-02-07T13:10:45.009Z,0.58
2023-02-07T13:16:32.760Z,0.47
2023-02-07T13:22:00.373Z,0.53
2023-02-07T13:27:26.522Z,0.37
2023-02-07T13:32:49.715Z,0.26
2023-02-07T13:38:36.045Z,0.28
2023-02-07T13:44:38.576Z,0.32
2023-02-07T13:50:20.051Z,0.37
2023-02-07T13:55:56.576Z,0.39
2023-02-07T14:01:32.909Z,0.41
2023-02-07T14:07:00.156Z,0.25
2023-02-07T14:12:45.737Z,0.31
2023-02-07T14:18:41.228Z,0.36
2023-02-07T14:24:24.612Z,0.41
2023-02-07T14:30:03.693Z,0.43
2023-02-07T14:35:34.208Z,0.38
2023-02-07T14:41:11.222Z,0.25
2023-02-07T14:46:41.299Z,0.23
2023-02-07T14:52:38.412Z,0.22
2023-02-07T14:58:20.834Z,-0.02
2023-02-07T15:03:44.755Z,-0.09
2023-02-07T15:09:19.954Z,-0.16
2023-02-07T15:14:48.306Z,-0.19
2023-02-07T15:20:13.141Z,-0.22
2023-02-07T15:25:36.631Z,-0.20
2023-02-07T15:31:13.917Z,-0.25
2023-02-07T15:36:50.680Z,-0.42
2023-02-07T15:42:14.788Z,-0.43
2023-02-07T15:47:50.858Z,-0.53
2023-02-07T15:53:18.468Z,-0.65
2023-02-07T15:58:43.993Z,-0.64
2023-02-07T16:04:09.723Z,-0.65
2023-02-07T16:09:52.796Z,-0.65
2023-02-07T16:15:29.545Z,-0.84
2023-02-07T16:20:54.510Z,-0.98
2023-02-07T16:26:17.796Z,-1.07
2023-02-07T16:31:41.096Z,-1.37
2023-02-07T16:37:06.246Z,-1.56
2023-02-07T16:42:30.601Z,-1.75
2023-02-07T16:47:52.914Z,-1.91
2023-02-07T16:53:15.749Z,-2.18
2023-02-07T16:58:41.148Z,-2.32
2023-02-07T17:04:04.393Z,-2.34
2023-02-07T17:09:43.505Z,-2.50
2023-02-07T17:15:05.711Z,-2.43
2023-02-07T17:20:39.237Z,-2.34
2023-02-07T17:26:02.848Z,-2.54
2023-02-07T17:31:25.448Z,-2.64
2023-02-07T17:36:55.805Z,-2.86
2023-02-07T17:42:18.940Z,-3.08
2023-02-07T17:47:41.320Z,-3.13
2023-02-07T17:53:03.952Z,-3.07
2023-02-07T17:58:27.014Z,-3.08
2023-02-07T18:03:49.222Z,-3.11
2023-02-07T18:09:11.596Z,-3.28
2023-02-07T18:14:34.017Z,-3.55
2023-02-07T18:19:56.698Z,-3.54
2023-02-07T18:25:19.606Z,-3.68
2023-02-07T18:30:43.409Z,-3.89
2023-02-07T18:36:09.296Z,-3.77
2023-02-07T18:41:36.420Z,-3.95
2023-02-07T18:46:58.760Z,-4.22
2023-02-07T18:52:21.105Z,-4.34
2023-02-07T18:57:43.405Z,-4.27
2023-02-07T19:03:06.429Z,-4.56
2023-02-07T19:08:28.792Z,-4.44
2023-02-07T19:13:52.745Z,-4.33
2023-02-07T19:19:18.372Z,-4.35
2023-02-07T19:24:42.693Z,-4.50
2023-02-07T19:30:07.045Z,-4.35
2023-02-07T19:35:29.719Z,-4.21
2023-02-07T19:40:52.046Z,-4.09
2023-02-07T19:46:14.808Z,-3.97
2023-02-07T19:51:39.748Z,-3.98
2023-02-07T19:57:02.577Z,-3.80
2023-02-07T20:02:25.810Z,-3.74
2023-02-07T20:07:48.676Z,-3.44
2023-02-07T20:13:11.140Z,-3.39
2023-02-07T20:18:33.703Z,-3.74
2023-02-07T20:23:57.846Z,-3.87
2023-02-07T20:29:23.559Z,-4.04
2023-02-07T20:34:45.869Z,-3.77
2023-02-07T20:40:08.213Z,-4.02
2023-02-07T20:45:30.542Z,-3.84
2023-02-07T20:50:52.785Z,-4.15
2023-02-07T20:56:19.219Z,-4.11
2023-02-07T21:01:43.682Z,-3.99
2023-02-07T21:07:06.896Z,-3.93
2023-02-07T21:12:29.668Z,-3.76
2023-02-07T21:17:52.024Z,-3.81
2023-02-07T21:23:14.226Z,-3.81
2023-02-07T21:28:37.560Z,-3.78
2023-02-07T21:34:01.006Z,-3.77
2023-02-07T21:39:25.458Z,-3.65
2023-02-07T21:44:49.364Z,-3.62
2023-02-07T21:50:18.075Z,-3.60
2023-02-07T21:55:41.619Z,-3.55
2023-02-07T22:01:05.755Z,-3.49
2023-02-07T22:06:29.366Z,-3.32
2023-02-07T22:11:55.026Z,-3.34
2023-02-07T22:17:17.374Z,-3.37
2023-02-07T22:22:39.678Z,-3.32
2023-02-07T22:28:03.140Z,-3.28
2023-02-07T22:33:26.726Z,-3.27
2023-02-07T22:38:49.046Z,-3.26
2023-02-07T22:44:12.101Z,-3.24
2023-02-07T22:49:34.419Z,-3.20
2023-02-07T22:54:56.903Z,-3.19
2023-02-07T23:00:20.652Z,-3.19
2023-02-07T23:05:43.697Z,-3.16
2023-02-07T23:11:06.008Z,-3.16
2023-02-07T23:16:35.435Z,-3.19
2023-02-07T23:21:57.887Z,-3.19
2023-02-07T23:27:20.585Z,-3.18
2023-02-07T23:32:42.835Z,-3.20
2023-02-07T23:38:06.828Z,-3.18
2023-02-07T23:43:29.950Z,-3.17
2023-02-07T23:48:52.223Z,-3.14
2023-02-07T23:54:15.678Z,-3.09
2023-02-07T23:59:38.036Z,-3.09
